createdAt,value
2023-01-29T00:01:40.290Z,0.57
2023-01-29T00:04:13.432Z,0.52
2023-01-29T00:06:48.101Z,0.53
2023-01-29T00:09:21.185Z,0.52
2023-01-29T00:11:54.835Z,0.53
2023-01-29T00:14:28.074Z,0.56
2023-01-29T00:17:01.023Z,0.57
2023-01-29T00:19:34.021Z,0.54
2023-01-29T00:22:08.599Z,0.57
2023-01-29T00:24:41.427Z,0.56
2023-01-29T00:27:14.346Z,0.49
2023-01-29T00:30:07.666Z,0.44
2023-01-29T00:32:40.920Z,0.54
2023-01-29T00:35:14.474Z,0.54
2023-01-29T00:37:49.796Z,0.52
2023-01-29T00:40:24.824Z,0.50
2023-01-29T00:43:16.600Z,0.49
2023-01-29T00:45:49.219Z,0.42
2023-01-29T00:48:22.582Z,0.38
2023-01-29T00:50:55.869Z,0.45
2023-01-29T00:53:30.733Z,0.39
2023-01-29T00:56:03.579Z,0.35
2023-01-29T00:58:36.368Z,0.45
2023-01-29T01:01:09.399Z,0.36
2023-01-29T01:03:43.647Z,0.40
2023-01-29T01:06:16.426Z,0.40
2023-01-29T01:15:39.049Z,0.37
2023-01-29T01:18:12.297Z,0.25
2023-01-29T01:20:45.761Z,0.28
2023-01-29T01:23:19.561Z,0.31
2023-01-29T01:25:53.781Z,0.36
2023-01-29T01:28:27.226Z,0.35
2023-01-29T01:31:09.537Z,0.29
2023-01-29T01:33:42.556Z,0.30
2023-01-29T01:36:16.013Z,0.32
2023-01-29T01:38:48.684Z,0.35
2023-01-29T01:41:24.362Z,0.27
2023-01-29T01:44:00.463Z,0.36
2023-01-29T01:46:35.295Z,0.33
2023-01-29T01:49:12.438Z,0.35
2023-01-29T01:51:49.041Z,0.26
2023-01-29T01:54:28.127Z,0.33
2023-01-29T01:57:12.053Z,0.36
2023-01-29T01:59:50.485Z,0.36
2023-01-29T02:02:43.479Z,0.38
2023-01-29T02:05:35.881Z,0.39
2023-01-29T02:08:28.229Z,0.19
2023-01-29T02:11:01.882Z,0.39
2023-01-29T02:13:37.027Z,0.39
2023-01-29T02:16:10.218Z,0.32
2023-01-29T02:18:43.370Z,0.36
2023-01-29T02:21:29.605Z,0.38
2023-01-29T02:24:39.972Z,0.33
2023-01-29T02:27:16.388Z,0.40
2023-01-29T02:29:59.410Z,0.39
2023-01-29T02:32:41.430Z,0.35
2023-01-29T02:35:32.226Z,0.39
2023-01-29T02:38:18.278Z,0.39
2023-01-29T02:40:56.801Z,0.38
2023-01-29T02:43:37.409Z,0.36
2023-01-29T02:46:19.448Z,0.28
2023-01-29T02:48:59.244Z,0.32
2023-01-29T02:51:38.000Z,0.34
2023-01-29T02:54:17.992Z,0.33
2023-01-29T02:56:56.771Z,0.31
2023-01-29T02:59:36.228Z,0.32
2023-01-29T03:02:16.590Z,0.32
2023-01-29T03:04:53.311Z,0.32
2023-01-29T03:07:42.555Z,0.32
2023-01-29T03:10:22.220Z,0.30
2023-01-29T03:13:00.181Z,0.26
2023-01-29T03:15:39.568Z,0.25
2023-01-29T03:18:31.705Z,0.24
2023-01-29T03:21:33.865Z,0.28
2023-01-29T03:24:28.451Z,0.28
2023-01-29T03:27:25.759Z,0.26
2023-01-29T03:30:19.992Z,0.25
2023-01-29T03:33:13.186Z,0.28
2023-01-29T03:35:54.226Z,0.18
2023-01-29T03:38:31.780Z,0.27
2023-01-29T03:41:09.417Z,0.23
2023-01-29T03:43:51.870Z,0.21
2023-01-29T03:46:30.470Z,0.20
2023-01-29T03:49:12.781Z,0.18
2023-01-29T03:51:55.714Z,0.27
2023-01-29T03:54:40.073Z,0.27
2023-01-29T03:57:18.268Z,0.27
2023-01-29T04:00:04.548Z,0.27
2023-01-29T04:02:56.303Z,0.16
2023-01-29T04:05:36.717Z,0.25
2023-01-29T04:08:28.602Z,0.22
2023-01-29T04:11:12.654Z,0.18
2023-01-29T04:13:47.610Z,0.19
2023-01-29T04:16:28.784Z,0.19
2023-01-29T04:19:25.826Z,0.19
2023-01-29T04:22:07.930Z,0.19
2023-01-29T04:24:43.000Z,0.15
2023-01-29T04:27:27.467Z,0.18
2023-01-29T04:30:17.763Z,0.16
2023-01-29T04:33:03.912Z,0.17
2023-01-29T04:35:53.370Z,0.16
2023-01-29T04:38:39.202Z,0.20
2023-01-29T04:41:21.112Z,0.17
2023-01-29T04:44:01.188Z,0.20
2023-01-29T04:46:42.685Z,0.20
2023-01-29T04:49:24.833Z,0.20
2023-01-29T04:52:07.918Z,0.17
2023-01-29T04:54:56.713Z,0.20
2023-01-29T04:57:37.425Z,0.21
2023-01-29T05:00:17.336Z,0.18
2023-01-29T05:02:51.535Z,0.21
2023-01-29T05:05:24.045Z,0.15
2023-01-29T05:07:58.968Z,0.13
2023-01-29T05:10:31.603Z,0.22
2023-01-29T05:13:09.197Z,0.22
2023-01-29T05:15:48.414Z,0.20
2023-01-29T05:18:21.708Z,0.23
2023-01-29T05:20:57.928Z,0.23
2023-01-29T05:23:30.879Z,0.22
2023-01-29T05:26:04.965Z,0.21
2023-01-29T05:28:39.222Z,0.15
2023-01-29T05:31:11.866Z,0.21
2023-01-29T05:33:45.113Z,0.09
2023-01-29T05:36:17.835Z,0.09
2023-01-29T05:38:51.069Z,0.20
2023-01-29T05:41:24.071Z,0.18
2023-01-29T05:43:58.475Z,0.19
2023-01-29T05:46:31.540Z,0.16
2023-01-29T05:49:04.411Z,0.18
2023-01-29T05:51:37.455Z,0.19
2023-01-29T05:54:12.325Z,0.19
2023-01-29T05:56:45.395Z,0.08
2023-01-29T05:59:19.937Z,0.16
2023-01-29T06:01:53.075Z,0.05
2023-01-29T06:04:26.142Z,0.21
2023-01-29T06:06:59.035Z,0.20
2023-01-29T06:09:31.818Z,0.18
2023-01-29T06:12:06.493Z,0.21
2023-01-29T06:14:40.643Z,0.19
2023-01-29T06:17:13.838Z,0.15
2023-01-29T06:19:46.784Z,0.17
2023-01-29T06:22:19.988Z,0.13
2023-01-29T06:24:52.706Z,0.08
2023-01-29T06:27:25.599Z,0.17
2023-01-29T06:29:59.551Z,0.13
2023-01-29T06:32:33.131Z,0.17
2023-01-29T06:35:06.777Z,0.19
2023-01-29T06:37:40.188Z,0.13
2023-01-29T06:40:14.268Z,0.11
2023-01-29T06:42:47.267Z,0.07
2023-01-29T06:45:21.150Z,0.18
2023-01-29T06:47:54.075Z,0.17
2023-01-29T06:50:27.359Z,0.15
2023-01-29T06:53:00.622Z,0.07
2023-01-29T06:55:33.367Z,0.13
2023-01-29T06:58:07.496Z,0.12
2023-01-29T07:00:41.958Z,0.12
2023-01-29T07:03:15.111Z,0.12
2023-01-29T07:05:52.177Z,0.11
2023-01-29T07:08:25.435Z,0.15
2023-01-29T07:11:00.302Z,0.14
2023-01-29T07:13:33.810Z,0.15
2023-01-29T07:16:08.575Z,0.04
2023-01-29T07:18:41.564Z,0.16
2023-01-29T07:21:14.899Z,0.10
2023-01-29T07:23:47.803Z,0.18
2023-01-29T07:26:20.816Z,0.20
2023-01-29T07:28:53.550Z,0.18
2023-01-29T07:31:31.189Z,0.20
2023-01-29T07:34:05.349Z,0.19
2023-01-29T07:36:38.600Z,0.20
2023-01-29T07:39:11.973Z,0.24
2023-01-29T07:41:44.509Z,0.26
2023-01-29T07:44:22.328Z,0.25
2023-01-29T07:46:57.684Z,0.24
2023-01-29T07:49:30.565Z,0.13
2023-01-29T07:52:03.517Z,0.22
2023-01-29T07:54:36.872Z,0.23
2023-01-29T07:57:09.713Z,0.27
2023-01-29T07:59:43.376Z,0.20
2023-01-29T08:02:17.765Z,0.27
2023-01-29T08:04:50.824Z,0.29
2023-01-29T08:07:23.769Z,0.30
2023-01-29T08:09:56.648Z,0.32
2023-01-29T08:12:29.937Z,0.32
2023-01-29T08:15:02.858Z,0.32
2023-01-29T08:17:56.110Z,0.32
2023-01-29T08:20:30.729Z,0.32
2023-01-29T08:23:06.675Z,0.34
2023-01-29T08:25:39.212Z,0.31
2023-01-29T08:28:12.843Z,0.32
2023-01-29T08:30:45.325Z,0.36
2023-01-29T08:33:26.434Z,0.29
2023-01-29T08:36:02.798Z,0.34
2023-01-29T08:38:36.365Z,0.36
2023-01-29T08:41:09.275Z,0.36
2023-01-29T08:43:42.020Z,0.37
2023-01-29T08:46:15.319Z,0.37
2023-01-29T08:48:49.713Z,0.40
2023-01-29T08:51:22.840Z,0.41
2023-01-29T08:53:55.959Z,0.40
2023-01-29T08:56:29.080Z,0.41
2023-01-29T08:59:01.971Z,0.41
2023-01-29T09:01:34.469Z,0.40
2023-01-29T09:04:09.089Z,0.42
2023-01-29T09:06:42.486Z,0.45
2023-01-29T09:09:15.495Z,0.43
2023-01-29T09:11:48.267Z,0.43
2023-01-29T09:14:21.500Z,0.42
2023-01-29T09:16:54.924Z,0.45
2023-01-29T09:19:29.285Z,0.46
2023-01-29T09:22:01.970Z,0.46
2023-01-29T09:24:35.347Z,0.43
2023-01-29T09:27:10.154Z,0.47
2023-01-29T09:29:43.065Z,0.49
2023-01-29T09:32:23.209Z,0.46
2023-01-29T09:35:07.328Z,0.51
2023-01-29T09:37:40.516Z,0.53
2023-01-29T09:40:26.197Z,0.53
2023-01-29T09:43:03.282Z,0.54
2023-01-29T09:45:37.212Z,0.55
2023-01-29T09:48:12.144Z,0.55
2023-01-29T09:50:49.522Z,0.54
2023-01-29T09:53:28.055Z,0.53
2023-01-29T09:56:05.754Z,0.44
2023-01-29T09:58:44.736Z,0.44
2023-01-29T10:01:27.516Z,0.33
2023-01-29T10:04:17.703Z,0.39
2023-01-29T10:07:06.070Z,0.50
2023-01-29T10:10:04.500Z,0.39
2023-01-29T10:12:52.527Z,0.50
2023-01-29T10:15:38.605Z,0.51
2023-01-29T10:18:47.373Z,0.52
2023-01-29T10:21:32.425Z,0.51
2023-01-29T10:24:22.813Z,0.53
2023-01-29T10:26:56.441Z,0.52
2023-01-29T10:29:33.118Z,0.51
2023-01-29T10:32:06.132Z,0.53
2023-01-29T10:34:46.290Z,0.53
2023-01-29T10:37:24.289Z,0.49
2023-01-29T10:40:00.472Z,0.53
2023-01-29T10:42:42.830Z,0.53
2023-01-29T10:45:25.487Z,0.53
2023-01-29T10:48:43.087Z,0.55
2023-01-29T10:51:30.252Z,0.56
2023-01-29T10:54:18.797Z,0.57
2023-01-29T10:57:11.565Z,0.55
2023-01-29T10:59:57.575Z,0.58
2023-01-29T11:02:30.880Z,0.45
2023-01-29T11:05:03.515Z,0.57
2023-01-29T11:07:39.884Z,0.55
2023-01-29T11:10:18.313Z,0.49
2023-01-29T11:12:57.357Z,0.51
2023-01-29T11:15:34.024Z,0.52
2023-01-29T11:18:16.235Z,0.57
2023-01-29T11:21:02.883Z,0.54
2023-01-29T11:23:37.681Z,0.51
2023-01-29T11:26:13.508Z,0.60
2023-01-29T11:28:49.677Z,0.59
2023-01-29T11:31:26.205Z,0.62
2023-01-29T11:34:06.189Z,0.63
2023-01-29T11:36:40.239Z,0.62
2023-01-29T11:39:19.141Z,0.61
2023-01-29T11:41:57.328Z,0.63
2023-01-29T11:44:34.031Z,0.60
2023-01-29T11:47:20.734Z,0.67
2023-01-29T11:49:55.655Z,0.62
2023-01-29T11:52:36.902Z,0.62
2023-01-29T11:55:18.011Z,0.70
2023-01-29T11:57:54.264Z,0.71
2023-01-29T12:00:31.730Z,0.73
2023-01-29T12:03:13.361Z,0.76
2023-01-29T12:05:56.917Z,0.77
2023-01-29T12:08:37.928Z,0.74
2023-01-29T12:11:15.308Z,0.77
2023-01-29T12:13:54.974Z,0.79
2023-01-29T12:16:33.583Z,0.58
2023-01-29T12:19:13.325Z,0.80
2023-01-29T12:21:51.714Z,0.77
2023-01-29T12:24:34.212Z,0.75
2023-01-29T12:27:15.437Z,0.74
2023-01-29T12:29:55.717Z,0.73
2023-01-29T12:32:38.457Z,0.48
2023-01-29T12:35:18.617Z,0.73
2023-01-29T12:37:58.507Z,0.73
2023-01-29T12:40:38.196Z,0.73
2023-01-29T12:43:17.493Z,0.72
2023-01-29T12:45:54.237Z,0.71
2023-01-29T12:48:32.070Z,0.73
2023-01-29T12:51:09.588Z,0.59
2023-01-29T12:53:48.386Z,0.66
2023-01-29T12:56:30.050Z,0.72
2023-01-29T12:59:10.955Z,0.71
2023-01-29T13:01:50.420Z,0.70
2023-01-29T13:04:34.560Z,0.68
2023-01-29T13:07:14.713Z,0.68
2023-01-29T13:09:54.734Z,0.68
2023-01-29T13:12:29.231Z,0.68
2023-01-29T13:15:10.369Z,0.60
2023-01-29T13:17:46.941Z,0.64
2023-01-29T13:20:26.092Z,0.68
2023-01-29T13:23:15.604Z,0.40
2023-01-29T13:25:52.052Z,0.62
2023-01-29T13:28:27.960Z,0.61
2023-01-29T13:31:14.236Z,0.63
2023-01-29T13:33:54.124Z,0.61
2023-01-29T13:36:43.754Z,0.59
2023-01-29T13:39:30.418Z,0.44
2023-01-29T13:42:16.364Z,0.56
2023-01-29T13:44:50.563Z,0.56
2023-01-29T13:47:27.787Z,0.46
2023-01-29T13:50:03.600Z,0.54
2023-01-29T13:52:43.537Z,0.53
2023-01-29T13:55:26.805Z,0.55
2023-01-29T13:58:03.297Z,0.56
2023-01-29T14:00:57.118Z,0.43
2023-01-29T14:04:03.744Z,0.53
2023-01-29T14:06:48.025Z,0.50
2023-01-29T14:10:00.958Z,0.50
2023-01-29T14:12:52.296Z,0.45
2023-01-29T14:15:31.551Z,0.47
2023-01-29T14:18:17.580Z,0.28
2023-01-29T14:21:05.524Z,0.35
2023-01-29T14:23:47.099Z,0.43
2023-01-29T14:26:32.281Z,0.43
2023-01-29T14:29:25.640Z,0.45
2023-01-29T14:32:15.935Z,0.46
2023-01-29T14:34:51.160Z,0.46
2023-01-29T14:37:31.275Z,0.45
2023-01-29T14:40:20.504Z,0.41
2023-01-29T14:43:03.605Z,0.44
2023-01-29T14:45:44.883Z,0.43
2023-01-29T14:48:38.736Z,0.39
2023-01-29T14:51:14.925Z,0.43
2023-01-29T14:53:57.935Z,0.39
2023-01-29T14:56:35.977Z,0.36
2023-01-29T14:59:16.743Z,0.37
2023-01-29T15:01:55.179Z,0.41
2023-01-29T15:04:32.351Z,0.42
2023-01-29T15:07:16.148Z,0.38
2023-01-29T15:09:57.276Z,0.36
2023-01-29T15:12:43.207Z,0.29
2023-01-29T15:18:29.512Z,0.29
2023-01-29T15:21:04.910Z,0.32
2023-01-29T15:23:39.528Z,0.33
2023-01-29T15:26:18.088Z,0.33
2023-01-29T15:29:03.516Z,0.32
2023-01-29T15:31:37.297Z,0.32
2023-01-29T15:34:12.549Z,0.30
2023-01-29T15:36:54.727Z,0.16
2023-01-29T15:39:31.873Z,0.23
2023-01-29T15:42:14.211Z,0.23
2023-01-29T15:44:47.481Z,0.30
2023-01-29T15:47:29.999Z,0.30
2023-01-29T15:50:18.869Z,0.31
2023-01-29T15:52:54.968Z,0.30
2023-01-29T15:55:28.451Z,0.30
2023-01-29T15:58:02.352Z,0.28
2023-01-29T16:00:36.635Z,0.31
2023-01-29T16:03:15.709Z,0.22
2023-01-29T16:05:50.663Z,0.31
2023-01-29T16:08:26.525Z,0.30
2023-01-29T16:11:02.476Z,0.23
2023-01-29T16:13:40.024Z,0.31
2023-01-29T16:16:28.494Z,0.23
2023-01-29T16:19:14.382Z,0.34
2023-01-29T16:21:55.288Z,0.33
2023-01-29T16:24:30.194Z,-0.03
2023-01-29T16:27:11.082Z,0.32
2023-01-29T16:29:44.096Z,0.32
2023-01-29T16:32:20.798Z,0.27
2023-01-29T16:34:58.344Z,0.30
2023-01-29T16:37:52.615Z,0.08
2023-01-29T16:40:34.206Z,0.15
2023-01-29T16:43:46.630Z,0.32
2023-01-29T16:46:34.942Z,0.29
2023-01-29T16:49:44.971Z,0.27
2023-01-29T16:52:20.874Z,0.26
2023-01-29T16:55:00.159Z,0.30
2023-01-29T16:57:34.467Z,0.30
2023-01-29T17:00:19.175Z,0.32
2023-01-29T17:02:55.496Z,0.30
2023-01-29T17:05:32.876Z,0.10
2023-01-29T17:08:15.171Z,0.19
2023-01-29T17:10:49.847Z,0.29
2023-01-29T17:13:29.362Z,0.30
2023-01-29T17:16:04.212Z,0.31
2023-01-29T17:18:37.811Z,0.12
2023-01-29T17:21:11.077Z,0.31
2023-01-29T17:23:44.327Z,0.31
2023-01-29T17:26:20.052Z,0.13
2023-01-29T17:28:55.472Z,0.24
2023-01-29T17:31:52.103Z,0.14
2023-01-29T17:34:47.371Z,-0.09
2023-01-29T17:37:27.888Z,0.30
2023-01-29T17:40:31.011Z,0.29
2023-01-29T17:43:05.256Z,0.29
2023-01-29T17:45:38.872Z,0.29
2023-01-29T17:48:15.674Z,0.04
2023-01-29T17:50:51.676Z,0.20
2023-01-29T17:53:26.510Z,0.30
2023-01-29T17:56:04.420Z,0.24
2023-01-29T17:58:38.376Z,0.29
2023-01-29T18:01:11.889Z,0.26
2023-01-29T18:03:45.188Z,0.26
2023-01-29T18:06:27.222Z,0.22
2023-01-29T18:09:00.200Z,0.30
2023-01-29T18:11:34.540Z,0.33
2023-01-29T18:14:14.000Z,0.29
2023-01-29T18:16:47.596Z,0.26
2023-01-29T18:19:23.584Z,0.30
2023-01-29T18:21:56.381Z,0.28
2023-01-29T18:24:30.258Z,0.28
2023-01-29T18:27:05.251Z,0.10
2023-01-29T18:29:39.557Z,0.15
2023-01-29T18:32:12.551Z,0.14
2023-01-29T18:34:45.539Z,0.27
2023-01-29T18:37:18.433Z,0.27
2023-01-29T18:41:52.472Z,0.28
2023-01-29T18:44:08.469Z,0.03
2023-01-29T18:46:42.693Z,0.13
2023-01-29T18:49:15.527Z,0.11
2023-01-29T18:51:48.100Z,0.24
2023-01-29T18:54:21.691Z,0.23
2023-01-29T18:57:08.607Z,0.24
2023-01-29T18:59:46.890Z,0.19
2023-01-29T19:02:21.838Z,0.19
2023-01-29T19:04:54.546Z,0.24
2023-01-29T19:07:27.812Z,0.20
2023-01-29T19:10:02.453Z,0.25
2023-01-29T19:12:35.906Z,0.22
2023-01-29T19:15:09.558Z,0.21
2023-01-29T19:17:44.205Z,0.21
2023-01-29T19:20:18.087Z,0.13
2023-01-29T19:22:51.596Z,0.21
2023-01-29T19:25:24.666Z,0.05
2023-01-29T19:27:57.552Z,0.16
2023-01-29T19:30:30.476Z,0.20
2023-01-29T19:33:05.882Z,0.19
2023-01-29T19:35:38.867Z,0.19
2023-01-29T19:38:11.473Z,0.19
2023-01-29T19:40:44.894Z,0.21
2023-01-29T19:43:18.482Z,0.23
2023-01-29T19:45:59.207Z,0.21
2023-01-29T19:48:33.582Z,0.23
2023-01-29T19:51:09.233Z,0.04
2023-01-29T19:53:46.122Z,0.22
2023-01-29T19:56:20.328Z,0.22
2023-01-29T19:58:57.742Z,0.05
2023-01-29T20:01:30.354Z,0.24
2023-01-29T20:04:04.915Z,0.24
2023-01-29T20:06:38.229Z,0.23
2023-01-29T20:09:11.408Z,0.03
2023-01-29T20:11:45.097Z,0.14
2023-01-29T20:14:17.556Z,0.26
2023-01-29T20:16:50.843Z,0.25
2023-01-29T20:19:28.017Z,0.25
2023-01-29T20:22:01.376Z,0.19
2023-01-29T20:24:39.548Z,0.20
2023-01-29T20:27:16.454Z,0.26
2023-01-29T20:29:49.343Z,0.26
2023-01-29T20:32:22.262Z,0.27
2023-01-29T20:34:56.438Z,0.26
2023-01-29T20:37:29.350Z,0.23
2023-01-29T20:40:05.046Z,0.08
2023-01-29T20:42:38.942Z,0.26
2023-01-29T20:45:15.502Z,0.24
2023-01-29T20:47:53.103Z,0.23
2023-01-29T20:50:27.775Z,0.22
2023-01-29T20:53:00.839Z,0.21
2023-01-29T20:55:33.807Z,0.21
2023-01-29T20:58:07.513Z,0.18
2023-01-29T21:00:40.729Z,0.23
2023-01-29T21:03:13.676Z,0.16
2023-01-29T21:05:47.529Z,0.19
2023-01-29T21:08:21.125Z,0.22
2023-01-29T21:10:54.149Z,0.23
2023-01-29T21:13:27.325Z,0.23
2023-01-29T21:16:00.010Z,0.23
2023-01-29T21:18:33.540Z,0.23
2023-01-29T21:21:08.157Z,0.22
2023-01-29T21:23:40.979Z,0.21
2023-01-29T21:26:13.751Z,0.19
2023-01-29T21:28:46.822Z,0.22
2023-01-29T21:31:20.304Z,0.09
2023-01-29T21:33:53.383Z,0.18
2023-01-29T21:36:28.061Z,0.22
2023-01-29T21:39:00.975Z,0.20
2023-01-29T21:41:52.464Z,0.18
2023-01-29T21:44:25.904Z,0.21
2023-01-29T21:46:59.140Z,0.05
2023-01-29T21:49:32.129Z,0.19
2023-01-29T21:52:07.009Z,0.19
2023-01-29T21:54:40.316Z,-0.12
2023-01-29T21:57:15.471Z,0.19
2023-01-29T21:59:52.440Z,0.20
2023-01-29T22:02:28.081Z,0.23
2023-01-29T22:05:17.515Z,0.25
2023-01-29T22:07:53.391Z,0.27
2023-01-29T22:10:26.372Z,0.26
2023-01-29T22:13:00.250Z,0.25
2023-01-29T22:15:33.422Z,0.25
2023-01-29T22:18:06.569Z,0.24
2023-01-29T22:20:39.530Z,0.20
2023-01-29T22:23:14.115Z,0.09
2023-01-29T22:25:46.999Z,0.16
2023-01-29T22:28:20.525Z,0.07
2023-01-29T22:30:53.789Z,0.12
2023-01-29T22:33:26.655Z,0.19
2023-01-29T22:36:00.224Z,0.04
2023-01-29T22:38:34.793Z,0.19
2023-01-29T22:41:07.841Z,0.15
2023-01-29T22:43:41.303Z,0.18
2023-01-29T22:46:14.766Z,0.19
2023-01-29T22:48:47.789Z,0.20
2023-01-29T22:51:20.709Z,0.21
2023-01-29T22:53:56.411Z,0.15
2023-01-29T22:56:32.429Z,0.09
2023-01-29T22:59:05.847Z,0.10
2023-01-29T23:01:38.660Z,0.21
2023-01-29T23:04:11.970Z,0.21
2023-01-29T23:06:45.172Z,0.15
2023-01-29T23:09:19.360Z,0.22
2023-01-29T23:11:52.300Z,0.18
2023-01-29T23:14:25.177Z,0.20
2023-01-29T23:16:58.008Z,0.22
2023-01-29T23:19:31.024Z,0.23
2023-01-29T23:22:03.965Z,0.17
2023-01-29T23:24:38.176Z,0.23
2023-01-29T23:27:17.327Z,0.18
2023-01-29T23:29:50.192Z,0.21
2023-01-29T23:32:23.063Z,0.22
2023-01-29T23:34:56.481Z,0.21
2023-01-29T23:37:29.606Z,0.22
2023-01-29T23:40:04.158Z,0.18
2023-01-29T23:42:37.383Z,0.22
2023-01-29T23:45:11.636Z,0.20
2023-01-29T23:47:45.358Z,0.19
2023-01-29T23:50:19.176Z,0.10
2023-01-29T23:52:52.518Z,0.16
2023-01-29T23:55:26.424Z,0.15
2023-01-29T23:57:59.866Z,0.16
